createdAt,value
2023-03-07T04:53:07.022Z,18.70
2023-03-07T04:55:33.962Z,17.87
2023-03-07T04:58:00.469Z,18.05
2023-03-07T05:00:29.501Z,17.98
2023-03-07T05:02:58.942Z,16.08
2023-03-07T05:05:25.485Z,16.38
2023-03-07T05:07:51.968Z,16.90
2023-03-07T05:10:18.614Z,15.20
2023-03-07T05:12:45.128Z,16.90
2023-03-07T05:15:11.744Z,16.08
2023-03-07T05:17:38.256Z,16.05
2023-03-07T05:20:05.682Z,15.17
2023-03-07T05:22:32.175Z,16.90
2023-03-07T05:24:58.653Z,15.02
2023-03-07T05:27:25.239Z,15.82
2023-03-07T05:29:51.783Z,14.48
2023-03-07T05:32:18.315Z,15.63
2023-03-07T05:34:46.996Z,16.88
2023-03-07T05:37:16.046Z,14.23
2023-03-07T05:39:42.646Z,15.32
2023-03-07T05:42:09.591Z,14.52
2023-03-07T05:44:36.119Z,15.27
2023-03-07T05:47:12.599Z,14.83
2023-03-07T05:49:39.079Z,14.90
2023-03-07T05:52:05.861Z,14.27
2023-03-07T05:54:32.397Z,14.52
2023-03-07T05:56:58.904Z,14.23
2023-03-07T05:59:25.415Z,15.43
2023-03-07T06:01:51.905Z,15.00
2023-03-07T06:04:18.410Z,15.00
2023-03-07T06:06:44.981Z,12.63
2023-03-07T06:09:11.496Z,13.48
2023-03-07T06:11:40.148Z,12.93
2023-03-07T06:14:06.693Z,14.13
2023-03-07T06:16:35.503Z,13.43
2023-03-07T06:19:02.089Z,13.98
2023-03-07T06:21:28.586Z,14.35
2023-03-07T06:23:56.559Z,13.70
2023-03-07T06:26:23.185Z,14.18
2023-03-07T06:28:50.305Z,13.80
2023-03-07T06:31:18.610Z,13.88
2023-03-07T06:33:48.199Z,14.88
2023-03-07T06:36:16.967Z,13.87
2023-03-07T06:38:44.498Z,14.63
2023-03-07T06:41:12.628Z,14.63
2023-03-07T06:43:39.619Z,13.68
2023-03-07T06:46:06.759Z,14.43
2023-03-07T06:48:35.187Z,14.03
2023-03-07T06:51:08.861Z,14.10
2023-03-07T06:53:37.886Z,14.23
2023-03-07T06:56:04.783Z,13.82
2023-03-07T06:58:33.862Z,13.85
2023-03-07T07:01:03.042Z,14.90
2023-03-07T07:03:32.076Z,13.57
2023-03-07T07:05:58.662Z,12.70
2023-03-07T07:08:25.217Z,14.27
2023-03-07T07:10:54.174Z,13.32
2023-03-07T07:13:20.758Z,12.43
2023-03-07T07:15:47.318Z,11.68
2023-03-07T07:18:14.299Z,11.77
2023-03-07T07:20:40.899Z,10.88
2023-03-07T07:23:07.445Z,10.63
2023-03-07T07:25:37.636Z,11.33
2023-03-07T07:28:04.296Z,12.27
2023-03-07T07:30:33.827Z,11.75
2023-03-07T07:33:00.531Z,12.10
2023-03-07T07:35:27.197Z,12.48
2023-03-07T07:37:54.420Z,12.13
2023-03-07T07:40:21.235Z,13.00
2023-03-07T07:42:54.583Z,12.98
2023-03-07T07:45:22.322Z,15.10
2023-03-07T07:47:51.441Z,17.10
2023-03-07T07:50:19.216Z,16.63
2023-03-07T07:52:48.048Z,16.50
2023-03-07T07:55:15.376Z,15.52
2023-03-07T07:57:42.534Z,15.18
2023-03-07T08:00:13.489Z,16.02
2023-03-07T08:02:42.473Z,16.20
2023-03-07T08:05:10.396Z,15.63
2023-03-07T08:07:37.699Z,16.42
2023-03-07T08:10:05.887Z,16.90
2023-03-07T08:12:34.719Z,16.48
2023-03-07T08:15:01.364Z,16.80
2023-03-07T08:17:30.992Z,17.15
2023-03-07T08:20:01.784Z,17.08
2023-03-07T08:22:29.324Z,16.23
2023-03-07T08:24:55.935Z,16.15
2023-03-07T08:27:22.531Z,16.20
2023-03-07T08:29:49.564Z,15.77
2023-03-07T08:32:16.156Z,14.07
2023-03-07T08:34:42.756Z,15.18
2023-03-07T08:37:10.503Z,13.13
2023-03-07T08:39:39.297Z,11.93
2023-03-07T08:42:06.975Z,12.73
2023-03-07T08:44:33.590Z,11.57
2023-03-07T08:47:00.155Z,11.13
2023-03-07T08:49:26.687Z,10.18
2023-03-07T08:51:58.566Z,10.53
2023-03-07T08:54:27.607Z,10.05
2023-03-07T08:56:54.146Z,10.10
2023-03-07T08:59:20.968Z,10.63
2023-03-07T09:01:47.672Z,10.60
2023-03-07T09:04:16.875Z,10.10
2023-03-07T09:06:43.686Z,9.95
2023-03-07T09:09:13.284Z,10.90
2023-03-07T09:11:39.960Z,9.93
2023-03-07T09:14:06.717Z,9.18
2023-03-07T09:16:33.283Z,9.23
2023-03-07T09:19:00.149Z,9.75
2023-03-07T09:21:26.753Z,9.18
2023-03-07T09:23:55.796Z,9.55
2023-03-07T09:26:22.496Z,9.90
2023-03-07T09:28:49.130Z,10.33
2023-03-07T09:31:16.189Z,10.10
2023-03-07T09:33:44.723Z,10.63
2023-03-07T09:36:15.082Z,11.18
2023-03-07T09:38:41.951Z,10.15
2023-03-07T09:41:27.167Z,11.37
2023-03-07T09:44:12.498Z,11.75
2023-03-07T09:47:03.845Z,10.55
2023-03-07T09:49:35.214Z,11.00
2023-03-07T09:52:02.646Z,11.40
2023-03-07T09:54:39.150Z,10.60
2023-03-07T09:57:16.763Z,10.00
2023-03-07T09:59:49.494Z,9.27
2023-03-07T10:02:21.357Z,9.80
2023-03-07T10:05:00.002Z,8.98
2023-03-07T10:07:27.717Z,9.03
2023-03-07T10:09:58.718Z,8.85
2023-03-07T10:12:53.128Z,8.57
2023-03-07T10:15:39.764Z,9.43
2023-03-07T10:18:43.160Z,7.57
2023-03-07T10:21:54.266Z,6.53
2023-03-07T10:24:37.168Z,5.80
2023-03-07T10:27:15.824Z,5.95
2023-03-07T10:29:56.728Z,7.32
2023-03-07T10:33:01.376Z,8.35
2023-03-07T10:35:43.036Z,8.63
2023-03-07T10:38:18.785Z,9.77
2023-03-07T10:40:58.010Z,9.25
2023-03-07T10:43:34.059Z,7.63
2023-03-07T10:46:25.384Z,6.90
2023-03-07T10:48:55.811Z,7.73
2023-03-07T10:51:33.487Z,7.10
2023-03-07T10:54:00.280Z,6.72
2023-03-07T10:56:29.383Z,7.07
2023-03-07T10:59:04.400Z,7.53
2023-03-07T11:01:32.455Z,7.70
2023-03-07T11:04:05.079Z,7.55
2023-03-07T11:06:56.824Z,8.02
2023-03-07T11:09:34.123Z,8.15
2023-03-07T11:12:13.122Z,8.05
2023-03-07T11:14:48.468Z,8.20
2023-03-07T11:17:25.948Z,8.45
2023-03-07T11:19:56.966Z,8.88
2023-03-07T11:22:29.703Z,8.70
2023-03-07T11:25:19.054Z,8.18
2023-03-07T11:27:51.180Z,8.43
2023-03-07T11:30:20.263Z,8.90
2023-03-07T11:33:09.185Z,8.55
2023-03-07T11:36:02.432Z,8.38
2023-03-07T11:39:03.831Z,9.20
2023-03-07T11:41:36.946Z,9.07
2023-03-07T11:44:18.786Z,11.48
2023-03-07T11:47:01.675Z,10.90
2023-03-07T11:49:39.679Z,11.07
2023-03-07T11:52:41.654Z,11.10
2023-03-07T11:55:33.471Z,11.37
2023-03-07T11:58:23.028Z,10.82
2023-03-07T12:01:31.081Z,10.77
2023-03-07T12:04:03.044Z,10.85
2023-03-07T12:07:27.458Z,11.52
2023-03-07T12:10:09.916Z,9.67
2023-03-07T12:12:36.408Z,10.23
2023-03-07T12:15:33.352Z,10.02
2023-03-07T12:17:59.930Z,9.20
2023-03-07T12:20:58.950Z,9.52
2023-03-07T12:23:34.058Z,9.33
2023-03-07T12:26:05.393Z,8.63
2023-03-07T12:28:55.343Z,8.77
2023-03-07T12:31:29.073Z,9.00
2023-03-07T12:34:07.801Z,9.48
2023-03-07T12:36:37.946Z,10.13
2023-03-07T12:39:31.115Z,9.90
2023-03-07T12:42:05.073Z,7.80
2023-03-07T12:44:41.011Z,9.13
2023-03-07T12:47:40.720Z,9.05
2023-03-07T12:50:41.536Z,8.80
2023-03-07T12:53:12.804Z,8.05
2023-03-07T12:55:51.228Z,8.68
2023-03-07T12:58:45.934Z,8.07
2023-03-07T13:01:19.786Z,8.68
2023-03-07T13:04:10.053Z,8.90
2023-03-07T13:06:44.665Z,9.07
2023-03-07T13:09:24.384Z,7.53
2023-03-07T13:12:28.145Z,7.18
2023-03-07T13:15:01.738Z,7.30
2023-03-07T13:17:31.556Z,7.60
2023-03-07T13:20:00.209Z,8.57
2023-03-07T13:22:26.734Z,7.68
2023-03-07T13:24:54.486Z,7.85
2023-03-07T13:27:26.669Z,7.57
2023-03-07T13:30:08.542Z,8.17
2023-03-07T13:32:56.465Z,7.15
2023-03-07T13:35:29.475Z,7.40
2023-03-07T13:38:04.766Z,7.00
2023-03-07T13:40:49.469Z,7.40
2023-03-07T13:43:19.173Z,8.87
2023-03-07T13:45:54.607Z,7.60
2023-03-07T13:48:29.945Z,8.13
2023-03-07T13:50:59.991Z,7.55
2023-03-07T13:53:45.343Z,7.20
2023-03-07T13:56:20.034Z,7.70
2023-03-07T13:58:56.393Z,7.70
2023-03-07T14:01:28.436Z,7.68
2023-03-07T14:03:59.051Z,8.10
2023-03-07T14:06:49.971Z,8.18
2023-03-07T14:09:22.543Z,8.03
2023-03-07T14:12:02.802Z,8.13
2023-03-07T14:14:42.376Z,7.82
2023-03-07T14:17:20.024Z,8.43
2023-03-07T14:19:52.777Z,8.30
2023-03-07T14:22:31.624Z,9.07
2023-03-07T14:25:18.120Z,8.60
2023-03-07T14:28:23.985Z,7.70
2023-03-07T14:30:56.852Z,8.10
2023-03-07T14:33:33.198Z,9.10
2023-03-07T14:35:59.856Z,7.37
2023-03-07T14:38:27.659Z,9.02
2023-03-07T14:40:57.213Z,8.82
2023-03-07T14:43:37.405Z,9.27
2023-03-07T14:46:19.328Z,8.50
2023-03-07T14:48:50.710Z,9.40
2023-03-07T14:51:21.451Z,8.80
2023-03-07T14:53:48.933Z,8.63
2023-03-07T14:56:21.790Z,8.80
2023-03-07T14:59:00.144Z,8.88
2023-03-07T15:01:39.228Z,9.37
2023-03-07T15:04:31.672Z,8.55
2023-03-07T15:07:06.380Z,9.45
2023-03-07T15:09:33.932Z,9.10
2023-03-07T15:12:16.572Z,9.77
2023-03-07T15:14:48.544Z,8.70
2023-03-07T15:17:41.979Z,9.48
2023-03-07T15:20:16.297Z,9.85
2023-03-07T15:22:43.200Z,10.32
2023-03-07T15:25:20.631Z,9.70
2023-03-07T15:27:48.312Z,10.33
2023-03-07T15:30:46.076Z,10.52
2023-03-07T15:33:25.175Z,11.30
2023-03-07T15:36:13.604Z,10.98
2023-03-07T15:38:42.180Z,11.40
2023-03-07T15:41:33.428Z,9.97
2023-03-07T15:44:26.536Z,9.70
2023-03-07T15:46:57.890Z,9.40
2023-03-07T15:49:26.670Z,9.45
2023-03-07T15:51:57.141Z,9.73
2023-03-07T15:54:43.243Z,9.53
2023-03-07T15:57:22.178Z,8.85
2023-03-07T15:59:50.329Z,8.88
2023-03-07T16:02:47.164Z,8.48
2023-03-07T16:05:19.607Z,9.30
2023-03-07T16:07:47.059Z,9.50
2023-03-07T16:10:13.596Z,9.10
2023-03-07T16:12:46.382Z,7.45
2023-03-07T16:15:18.153Z,8.60
2023-03-07T16:17:45.348Z,9.43
2023-03-07T16:20:19.671Z,8.70
2023-03-07T16:22:49.050Z,9.13
2023-03-07T16:25:16.496Z,8.43
2023-03-07T16:27:54.283Z,8.57
2023-03-07T16:30:23.202Z,8.95
2023-03-07T16:32:49.996Z,9.53
2023-03-07T16:35:21.768Z,9.95
2023-03-07T16:37:48.330Z,8.68
2023-03-07T16:40:16.153Z,9.93
2023-03-07T16:42:44.347Z,9.55
2023-03-07T16:45:23.982Z,9.53
2023-03-07T16:47:57.357Z,10.10
2023-03-07T16:50:26.511Z,9.52
2023-03-07T16:52:53.048Z,10.00
2023-03-07T16:55:24.476Z,9.18
2023-03-07T16:57:56.751Z,10.27
2023-03-07T17:00:27.278Z,10.10
2023-03-07T17:02:55.479Z,10.00
2023-03-07T17:05:27.364Z,9.38
2023-03-07T17:07:55.445Z,9.60
2023-03-07T17:10:23.880Z,9.17
2023-03-07T17:12:50.840Z,9.07
2023-03-07T17:15:20.725Z,9.50
2023-03-07T17:17:47.301Z,9.48
2023-03-07T17:20:16.667Z,9.35
2023-03-07T17:22:43.749Z,9.50
2023-03-07T17:25:10.826Z,9.32
2023-03-07T17:27:41.807Z,9.95
2023-03-07T17:30:30.410Z,10.40
2023-03-07T17:32:57.742Z,9.60
2023-03-07T17:35:28.297Z,9.73
2023-03-07T17:37:54.881Z,10.35
2023-03-07T17:40:22.077Z,10.15
2023-03-07T17:42:50.917Z,10.25
2023-03-07T17:45:18.179Z,10.73
2023-03-07T17:47:44.781Z,10.13
2023-03-07T17:50:11.962Z,10.57
2023-03-07T17:52:38.590Z,10.20
2023-03-07T17:55:09.640Z,10.80
2023-03-07T17:57:36.440Z,10.73
2023-03-07T18:00:06.858Z,10.17
2023-03-07T18:02:36.409Z,11.88
2023-03-07T18:05:03.117Z,11.57
2023-03-07T18:07:29.696Z,11.43
2023-03-07T18:10:07.544Z,11.23
2023-03-07T18:12:35.817Z,11.07
2023-03-07T18:15:02.382Z,11.38
2023-03-07T18:17:35.732Z,11.25
2023-03-07T18:20:13.836Z,11.02
2023-03-07T18:22:40.700Z,12.30
2023-03-07T18:25:09.848Z,13.30
2023-03-07T18:27:38.703Z,11.02
2023-03-07T18:30:05.812Z,11.50
2023-03-07T18:32:34.174Z,12.07
2023-03-07T18:35:00.846Z,11.38
2023-03-07T18:37:28.158Z,12.93
2023-03-07T18:39:54.676Z,12.13
2023-03-07T18:42:24.422Z,11.18
2023-03-07T18:44:51.190Z,12.68
2023-03-07T18:47:17.710Z,12.43
2023-03-07T18:49:44.222Z,13.93
2023-03-07T18:52:10.711Z,12.00
2023-03-07T18:54:39.492Z,12.20
2023-03-07T18:57:06.034Z,11.27
2023-03-07T18:59:32.747Z,12.13
2023-03-07T19:02:02.947Z,12.83
2023-03-07T19:04:30.285Z,12.68
2023-03-07T19:06:58.130Z,11.73
2023-03-07T19:09:26.160Z,11.93
2023-03-07T19:11:53.146Z,12.60
2023-03-07T19:14:19.695Z,12.13
2023-03-07T19:16:46.242Z,14.10
2023-03-07T19:19:12.755Z,12.23
2023-03-07T19:21:39.320Z,11.88
2023-03-07T19:24:07.805Z,12.15
2023-03-07T19:26:34.391Z,12.77
2023-03-07T19:29:00.942Z,12.32
2023-03-07T19:31:29.831Z,13.13
2023-03-07T19:33:56.879Z,12.50
2023-03-07T19:36:27.624Z,11.77
2023-03-07T19:38:59.118Z,11.80
2023-03-07T19:41:27.334Z,11.75
2023-03-07T19:43:55.819Z,11.98
2023-03-07T19:46:22.741Z,12.77
2023-03-07T19:48:49.548Z,11.13
2023-03-07T19:51:36.577Z,11.40
2023-03-07T19:54:04.232Z,12.25
2023-03-07T19:56:32.378Z,11.57
2023-03-07T19:59:01.045Z,11.48
2023-03-07T20:01:29.946Z,11.90
2023-03-07T20:03:57.076Z,11.87
2023-03-07T20:06:27.479Z,10.98
2023-03-07T20:08:55.877Z,12.15
2023-03-07T20:11:27.820Z,12.40
2023-03-07T20:13:56.022Z,12.13
2023-03-07T20:16:23.028Z,12.07
2023-03-07T20:18:51.422Z,11.57
2023-03-07T20:21:19.313Z,11.85
2023-03-07T20:23:47.025Z,11.77
2023-03-07T20:26:25.844Z,11.10
2023-03-07T20:28:53.234Z,11.53
2023-03-07T20:31:22.048Z,10.73
2023-03-07T20:33:49.110Z,10.95
2023-03-07T20:36:16.992Z,11.40
2023-03-07T20:38:43.568Z,10.35
2023-03-07T20:41:14.433Z,10.63
2023-03-07T20:43:43.330Z,9.57
2023-03-07T20:46:13.755Z,10.32
2023-03-07T20:48:41.338Z,11.05
2023-03-07T20:51:19.869Z,10.65
2023-03-07T20:53:54.982Z,9.63
2023-03-07T20:56:24.829Z,10.32
2023-03-07T20:58:52.916Z,9.57
